Flight Track Log - Related Links

Times and Time Zones

All times are in EDT time to prevent confusion due to time zone crossing. See the SWA4963 flight status page for this flight to view local times or setup timezone preferences in your user account.

Time Position Orientation Groundspeed Altitude Reporting Facility
EDT Latitude Longitude Course Direction KTS MPH feet Rate Location/Type
Tue 10:11:46 PM 39.1194 -76.6108 270° West 159 183 3,900  Level Washington Center
Tue 10:12:44 PM 39.1183 -76.5225 91° East 159 183 5,700 3,378 Climbing Washington Center
Tue 10:13:45 PM 39.1333 -76.4319 78° East 216 249 10,600 3,344 Climbing Washington Center
Tue 10:14:46 PM 39.1425 -76.3222 84° East 263 303 12,500 2,479 Climbing Washington Center
Tue 10:15:46 PM 39.1514 -76.1964 85° East 316 364 15,600 3,407 Climbing Washington Center
Tue 10:16:00 PM 39.1667 -76.6363 270° West  Level FlightAware Approximate
Tue 10:16:44 PM 39.1731 -76.0494 79° East 361 415 19,200  Level Washington Center
Tue 10:17:44 PM 39.1900 -75.9183 80° East 372 428 21,800 2,500 Climbing Washington Center
Tue 10:18:44 PM 39.2550 -75.8033 54° Northeast 372 428 24,200 2,250 Climbing Washington Center
Tue 10:19:44 PM 39.3383 -75.6936 46° Northeast 393 452 26,300 1,983 Climbing Washington Center
Tue 10:20:45 PM 39.4239 -75.5836 45° Northeast 408 470 28,200 1,869 Climbing Washington Center
Tue 10:21:46 PM 39.5114 -75.4678 46° Northeast 425 489 30,100 2,218 Climbing Washington Center
Tue 10:22:44 PM 39.5967 -75.3572 45° Northeast 430 495 32,600 1,871 Climbing Washington Center
Tue 10:24:52 PM 39.7711 -75.1111 47° Northeast 441 507 35,900 1,397 Climbing New York Center
Tue 10:25:53 PM 39.8522 -74.9972 47° Northeast 436 502 37,000 545 Climbing New York Center
Tue 10:26:53 PM 39.9356 -74.8806 47° Northeast 436 502 37,000  Level New York Center
Tue 10:27:54 PM 40.0303 -74.7967 34° Northeast 436 502 37,000  Level New York Center
Tue 10:29:51 PM 40.2853 -74.7061 15° North 487 560 37,000  Level Boston Center
Tue 10:30:51 PM 40.4069 -74.6639 15° North 458 527 37,000  Level Boston Center
Tue 10:31:51 PM 40.5244 -74.6189 16° North 448 516 37,000  Level Boston Center
Tue 10:32:51 PM 40.6442 -74.5789 14° North 438 504 37,000  Level Boston Center
Tue 10:33:51 PM 40.7594 -74.5336 17° North 438 504 37,000  Level Boston Center
Tue 10:34:51 PM 40.8811 -74.4908 15° North 438 504 37,000  Level Boston Center
Tue 10:35:51 PM 40.9964 -74.4531 14° North 433 498 37,000  Level Boston Center
Tue 10:36:51 PM 41.1119 -74.4100 16° North 433 498 37,000  Level Boston Center
Tue 10:37:51 PM 41.2189 -74.3744 14° North 433 498 37,000  Level Boston Center
Tue 10:38:51 PM 41.3425 -74.3258 16° North 433 498 37,000  Level Boston Center
Tue 10:39:51 PM 41.4558 -74.2847 15° North 428 493 37,000  Level Boston Center
Tue 10:40:51 PM 41.5647 -74.2492 14° North 434 499 37,000 -300 Level Boston Center
Tue 10:41:51 PM 41.6822 -74.2053 16° North 434 499 36,400 -800 Descending Boston Center
Tue 10:42:51 PM 41.8058 -74.1614 15° North 434 499 35,400 -1,300 Descending Boston Center
Tue 10:43:51 PM 41.9214 -74.1003 21° North 439 505 33,800 -1,250 Descending Boston Center
Tue 10:44:51 PM 41.9919 -73.9736 53° Northeast 410 472 32,900 -900 Descending Boston Center
Tue 10:45:51 PM 42.0606 -73.8328 57° Northeast 418 481 32,000 -1,000 Descending Boston Center
Tue 10:46:51 PM 42.1267 -73.7025 56° Northeast 449 517 30,900 -2,000 Descending Boston Center
Tue 10:47:51 PM 42.1928 -73.5611 58° Northeast 455 524 28,000 -2,750 Descending Boston Center
Tue 10:48:51 PM 42.2586 -73.4275 56° Northeast 442 509 25,400 -2,150 Descending Boston Center
Tue 10:49:51 PM 42.3264 -73.2908 56° Northeast 420 483 23,700 -1,350 Descending Boston Center
Tue 10:50:51 PM 42.3897 -73.1542 58° Northeast 415 478 22,700 -1,000 Descending Boston Center
Tue 10:51:51 PM 42.4511 -73.0225 58° Northeast 409 471 21,700 -950 Descending Boston Center
Tue 10:52:51 PM 42.5100 -72.8964 58° Northeast 409 471 20,800 -1,000 Descending Boston Center
Tue 10:54:03 PM 42.5731 -72.7333 62° Northeast 404 465 19,500 -1,000 Descending Boston Center
Tue 10:55:03 PM 42.6108 -72.6150 67° East 386 444 18,600 -1,050 Descending Boston Center
Tue 10:56:03 PM 42.6525 -72.4825 67° East 381 438 17,400 -1,800 Descending Boston Center
Tue 10:57:03 PM 42.6922 -72.3553 67° East 370 426 15,000 -2,450 Descending Boston Center
Tue 10:58:03 PM 42.7317 -72.2197 68° East 358 412 12,500 -2,200 Descending Boston Center
Tue 10:59:03 PM 42.7750 -72.1175 60° Northeast 347 399 10,600 -1,450 Descending Boston Center
Tue 11:00:03 PM 42.8228 -72.0097 59° Northeast 314 361 9,600 -1,150 Descending Boston Center
Tue 11:01:03 PM 42.8578 -71.9303 59° Northeast 277 319 8,300 -1,600 Descending Boston Center
Tue 11:02:03 PM 42.8989 -71.8336 60° Northeast 265 305 6,400 -1,800 Descending Boston Center
Tue 11:03:03 PM 42.9319 -71.7567 60° Northeast 265 305 4,700 -1,250 Descending Boston Center
Tue 11:04:03 PM 42.9708 -71.6625 61° Northeast 265 305 3,900 -850 Descending Boston Center
Tue 11:05:03 PM 42.9997 -71.5969 59° Northeast 238 274 3,000 -1,000 Descending Boston Center
Tue 11:06:03 PM 43.0344 -71.5169 59° Northeast 225 259 1,900 -650 Descending Boston Center
Tue 11:07:03 PM 43.0069 -71.4833 138° Southeast 149 171 1,700 -500 Descending Boston Center
Tue 11:08:03 PM 42.9733 -71.4583 151° Southeast 113 130 900 -700 Descending Boston Center
Tue 11:09:03 PM 42.9442 -71.4389 154° Southeast 118 136 300 4,050 Descending Boston Center
Tue 11:10:03 PM 42.9128 -71.4167 153° Southeast 118 136 9,000 4,350 Climbing Boston Center
Tue 11:11:03 PM 42.8811 -71.3944 153° Southeast 118 136 9,000  Level Boston Center

Login

Don't have an account? Register now (free) for customized features, flight alerts, and more!